createdAt,value
2023-02-11T00:02:01.931Z,32.83
2023-02-11T00:04:29.761Z,31.42
2023-02-11T00:06:59.175Z,34.58
2023-02-11T00:09:27.419Z,32.47
2023-02-11T00:11:55.020Z,41.13
2023-02-11T00:14:23.104Z,28.15
2023-02-11T00:16:51.085Z,34.67
2023-02-11T00:19:18.991Z,42.17
2023-02-11T00:21:46.580Z,30.48
2023-02-11T00:24:16.185Z,33.08
2023-02-11T00:26:43.817Z,30.60
2023-02-11T00:29:14.169Z,25.55
2023-02-11T00:31:41.944Z,29.08
2023-02-11T00:34:10.048Z,33.42
2023-02-11T00:36:37.579Z,37.55
2023-02-11T00:39:05.755Z,33.22
2023-02-11T00:41:34.997Z,34.35
2023-02-11T00:44:03.724Z,31.13
2023-02-11T00:46:31.758Z,23.00
2023-02-11T00:48:59.598Z,33.38
2023-02-11T00:51:28.930Z,31.70
2023-02-11T00:53:57.404Z,30.63
2023-02-11T00:56:25.375Z,27.60
2023-02-11T00:58:55.118Z,30.85
2023-02-11T01:01:23.198Z,29.95
2023-02-11T01:03:51.526Z,33.17
2023-02-11T01:06:19.080Z,36.40
2023-02-11T01:08:47.457Z,30.17
2023-02-11T01:11:18.135Z,31.25
2023-02-11T01:13:47.885Z,31.67
2023-02-11T01:16:18.180Z,30.98
2023-02-11T01:18:46.668Z,28.60
2023-02-11T01:21:14.345Z,31.88
2023-02-11T01:23:42.616Z,32.53
2023-02-11T01:26:12.275Z,30.65
2023-02-11T01:28:40.293Z,35.60
2023-02-11T01:31:08.108Z,33.53
2023-02-11T01:33:37.730Z,29.55
2023-02-11T01:36:07.353Z,32.80
2023-02-11T01:38:36.141Z,31.25
2023-02-11T01:41:06.340Z,30.70
2023-02-11T01:43:38.288Z,29.75
2023-02-11T01:46:20.376Z,25.30
2023-02-11T01:48:53.344Z,37.72
2023-02-11T01:51:24.995Z,36.75
2023-02-11T01:53:54.220Z,33.17
2023-02-11T01:56:24.151Z,31.50
2023-02-11T01:58:55.720Z,32.45
2023-02-11T02:01:28.332Z,25.15
2023-02-11T02:04:01.826Z,33.40
2023-02-11T02:06:34.615Z,25.73
2023-02-11T02:09:06.655Z,25.30
2023-02-11T02:11:34.435Z,31.23
2023-02-11T02:14:02.507Z,29.20
2023-02-11T02:16:33.475Z,21.05
2023-02-11T02:19:24.995Z,27.70
2023-02-11T02:22:16.945Z,33.58
2023-02-11T02:25:17.431Z,24.20
2023-02-11T02:27:55.473Z,26.60
2023-02-11T02:30:50.389Z,26.17
2023-02-11T02:33:38.248Z,27.63
2023-02-11T02:36:14.816Z,22.88
2023-02-11T02:38:50.903Z,25.38
2023-02-11T02:41:23.280Z,23.67
2023-02-11T02:43:51.886Z,25.60
2023-02-11T02:46:22.905Z,25.95
2023-02-11T02:48:53.618Z,25.25
2023-02-11T02:51:59.036Z,24.20
2023-02-11T02:54:51.876Z,24.40
2023-02-11T02:57:29.844Z,24.70
2023-02-11T03:00:09.653Z,28.00
2023-02-11T03:02:47.680Z,24.42
2023-02-11T03:05:22.846Z,26.73
2023-02-11T03:07:57.036Z,32.67
2023-02-11T03:10:29.137Z,23.60
2023-02-11T03:12:58.246Z,27.70
2023-02-11T03:15:28.551Z,25.67
2023-02-11T03:18:00.628Z,27.80
2023-02-11T03:20:33.277Z,29.70
2023-02-11T03:23:06.233Z,23.45
2023-02-11T03:25:38.211Z,30.17
2023-02-11T03:28:13.716Z,26.00
2023-02-11T03:30:48.259Z,19.95
2023-02-11T03:33:24.160Z,28.67
2023-02-11T03:35:56.805Z,25.48
2023-02-11T03:38:30.986Z,23.98
2023-02-11T03:41:00.729Z,27.83
2023-02-11T03:43:34.101Z,26.10
2023-02-11T03:46:03.642Z,27.85
2023-02-11T03:48:36.410Z,29.70
2023-02-11T03:51:09.409Z,25.67
2023-02-11T03:53:41.029Z,27.30
2023-02-11T03:56:12.068Z,22.55
2023-02-11T03:58:40.006Z,22.40
2023-02-11T04:01:07.879Z,24.45
2023-02-11T04:03:35.985Z,27.35
2023-02-11T04:06:05.514Z,25.98
2023-02-11T04:08:33.494Z,25.35
2023-02-11T04:11:00.998Z,23.85
2023-02-11T04:13:29.368Z,22.42
2023-02-11T04:15:56.979Z,22.60
2023-02-11T04:18:24.922Z,25.27
2023-02-11T04:20:52.489Z,19.65
2023-02-11T04:23:21.965Z,24.75
2023-02-11T04:25:51.753Z,24.20
2023-02-11T04:28:20.000Z,23.30
2023-02-11T04:30:49.586Z,21.77
2023-02-11T04:33:17.622Z,21.13
2023-02-11T04:35:45.444Z,20.13
2023-02-11T04:38:13.583Z,25.65
2023-02-11T04:40:42.967Z,22.48
2023-02-11T04:43:10.905Z,21.52
2023-02-11T04:45:38.702Z,18.77
2023-02-11T04:48:06.724Z,26.60
2023-02-11T04:50:34.285Z,25.33
2023-02-11T04:53:02.247Z,24.45
2023-02-11T04:55:29.987Z,25.48
2023-02-11T04:57:59.371Z,26.17
2023-02-11T05:00:26.972Z,29.40
2023-02-11T05:02:54.953Z,32.25
2023-02-11T05:05:22.706Z,26.98
2023-02-11T05:07:50.643Z,24.23
2023-02-11T05:10:18.226Z,23.30
2023-02-11T05:12:48.290Z,24.23
2023-02-11T05:15:17.559Z,26.05
2023-02-11T05:17:45.550Z,22.63
2023-02-11T05:20:13.468Z,24.10
2023-02-11T05:22:41.700Z,24.80
2023-02-11T05:25:09.291Z,26.20
2023-02-11T05:27:38.831Z,24.35
2023-02-11T05:30:07.568Z,24.92
2023-02-11T05:32:37.081Z,19.65
2023-02-11T05:35:05.049Z,25.48
2023-02-11T05:37:33.092Z,27.40
2023-02-11T05:40:00.660Z,22.10
2023-02-11T05:42:28.621Z,25.52
2023-02-11T05:44:56.162Z,26.25
2023-02-11T05:47:24.023Z,26.73
2023-02-11T05:49:53.397Z,26.65
2023-02-11T05:52:21.527Z,24.90
2023-02-11T05:54:49.132Z,30.50
2023-02-11T05:57:17.530Z,26.02
2023-02-11T05:59:45.074Z,26.02
2023-02-11T06:02:13.013Z,26.45
2023-02-11T06:04:40.640Z,24.95
2023-02-11T06:07:10.190Z,28.63
2023-02-11T06:09:37.659Z,25.55
2023-02-11T06:12:06.221Z,23.05
2023-02-11T06:14:34.037Z,25.17
2023-02-11T06:17:01.863Z,24.23
2023-02-11T06:19:29.643Z,26.92
2023-02-11T06:21:57.724Z,22.92
2023-02-11T06:24:50.956Z,32.40
2023-02-11T06:27:14.848Z,24.52
2023-02-11T06:29:42.342Z,30.42
2023-02-11T06:32:28.141Z,27.70
2023-02-11T06:34:57.867Z,23.70
2023-02-11T06:37:25.608Z,23.77
2023-02-11T06:39:54.660Z,26.40
2023-02-11T06:42:22.598Z,23.90
2023-02-11T06:44:50.125Z,22.35
2023-02-11T06:47:18.136Z,22.55
2023-02-11T06:49:46.277Z,24.00
2023-02-11T06:52:14.278Z,25.67
2023-02-11T06:54:41.799Z,30.85
2023-02-11T06:57:11.369Z,25.55
2023-02-11T06:59:38.926Z,25.55
2023-02-11T07:02:09.484Z,30.20
2023-02-11T07:04:37.168Z,28.27
2023-02-11T07:07:05.161Z,23.42
2023-02-11T07:09:32.818Z,26.33
2023-02-11T07:12:00.771Z,25.30
2023-02-11T07:14:29.859Z,22.63
2023-02-11T07:16:57.826Z,27.90
2023-02-11T07:19:25.477Z,24.85
2023-02-11T07:21:53.745Z,24.02
2023-02-11T07:24:21.170Z,23.73
2023-02-11T07:26:49.003Z,29.60
2023-02-11T07:29:16.511Z,28.63
2023-02-11T07:31:45.804Z,25.67
2023-02-11T07:34:13.441Z,26.30
2023-02-11T07:36:41.265Z,26.23
2023-02-11T07:39:08.778Z,24.88
2023-02-11T07:41:37.969Z,24.55
2023-02-11T07:44:06.295Z,22.45
2023-02-11T07:46:34.321Z,26.95
2023-02-11T07:49:03.555Z,26.45
2023-02-11T07:51:31.868Z,30.02
2023-02-11T07:54:00.489Z,28.50
2023-02-11T07:56:29.012Z,40.92
2023-02-11T07:58:59.581Z,29.85
2023-02-11T08:01:28.180Z,27.63
2023-02-11T08:03:56.411Z,26.77
2023-02-11T08:06:27.682Z,28.50
2023-02-11T08:08:55.710Z,24.38
2023-02-11T08:11:25.515Z,26.40
2023-02-11T08:13:54.079Z,22.83
2023-02-11T08:16:24.585Z,27.58
2023-02-11T08:18:53.703Z,24.23
2023-02-11T08:21:22.057Z,21.15
2023-02-11T08:23:52.686Z,25.13
2023-02-11T08:26:23.396Z,22.50
2023-02-11T08:28:52.693Z,20.35
2023-02-11T08:31:23.263Z,23.92
2023-02-11T08:33:51.557Z,23.52
2023-02-11T08:36:22.209Z,23.10
2023-02-11T08:38:51.792Z,22.58
2023-02-11T08:41:20.131Z,24.33
2023-02-11T08:43:47.856Z,23.20
2023-02-11T08:46:19.716Z,21.58
2023-02-11T08:48:48.149Z,25.42
2023-02-11T08:51:17.889Z,23.88
2023-02-11T08:53:45.478Z,23.60
2023-02-11T08:56:15.667Z,24.30
2023-02-11T08:58:43.315Z,19.00
2023-02-11T09:01:12.430Z,21.33
2023-02-11T09:03:40.544Z,24.40
2023-02-11T09:06:10.534Z,25.17
2023-02-11T09:08:40.608Z,23.00
2023-02-11T09:11:09.628Z,23.00
2023-02-11T09:13:38.597Z,25.45
2023-02-11T09:16:08.082Z,20.98
2023-02-11T09:18:35.702Z,26.33
2023-02-11T09:21:04.817Z,23.33
2023-02-11T09:23:33.209Z,20.52
2023-02-11T09:26:08.146Z,23.98
2023-02-11T09:28:38.551Z,21.58
2023-02-11T09:31:07.365Z,21.10
2023-02-11T09:33:35.252Z,19.67
2023-02-11T09:36:04.561Z,19.90
2023-02-11T09:38:32.602Z,20.35
2023-02-11T09:41:00.598Z,20.00
2023-02-11T09:43:33.881Z,17.30
2023-02-11T09:46:05.252Z,20.15
2023-02-11T09:48:40.345Z,19.23
2023-02-11T09:51:19.530Z,17.95
2023-02-11T09:53:54.753Z,16.88
2023-02-11T09:56:24.536Z,19.95
2023-02-11T09:58:52.117Z,18.67
2023-02-11T10:01:30.847Z,17.77
2023-02-11T10:04:04.815Z,17.35
2023-02-11T10:06:39.908Z,17.80
2023-02-11T10:09:28.456Z,17.23
2023-02-11T10:12:11.951Z,22.08
2023-02-11T10:15:04.279Z,18.50
2023-02-11T10:17:42.847Z,19.45
2023-02-11T10:20:23.596Z,19.10
2023-02-11T10:22:54.592Z,19.75
2023-02-11T10:25:23.956Z,20.80
2023-02-11T10:27:55.065Z,18.67
2023-02-11T10:30:29.023Z,22.33
2023-02-11T10:33:04.056Z,20.83
2023-02-11T10:35:32.769Z,24.38
2023-02-11T10:38:01.392Z,20.92
2023-02-11T10:40:31.094Z,21.55
2023-02-11T10:43:03.850Z,24.13
2023-02-11T10:45:34.735Z,20.02
2023-02-11T10:48:26.701Z,17.83
2023-02-11T10:51:08.460Z,17.95
2023-02-11T10:53:36.947Z,22.73
2023-02-11T10:56:06.318Z,22.90
2023-02-11T10:58:40.782Z,18.55
2023-02-11T11:01:23.515Z,19.75
2023-02-11T11:03:53.065Z,20.65
2023-02-11T11:06:32.212Z,18.00
2023-02-11T11:09:00.187Z,24.30
2023-02-11T11:11:27.622Z,20.50
2023-02-11T11:13:57.772Z,18.98
2023-02-11T11:16:27.571Z,24.17
2023-02-11T11:19:15.363Z,22.85
2023-02-11T11:21:46.431Z,20.98
2023-02-11T11:24:19.852Z,20.10
2023-02-11T11:26:51.582Z,18.95
2023-02-11T11:29:24.308Z,22.60
2023-02-11T11:31:55.236Z,20.50
2023-02-11T11:34:28.950Z,21.42
2023-02-11T11:36:59.670Z,21.90
2023-02-11T11:39:31.298Z,19.52
2023-02-11T11:42:00.599Z,20.90
2023-02-11T11:44:31.828Z,26.17
2023-02-11T11:47:20.612Z,24.02
2023-02-11T11:49:55.840Z,19.45
2023-02-11T11:52:35.854Z,18.65
2023-02-11T11:55:13.415Z,22.95
2023-02-11T11:57:41.372Z,21.17
2023-02-11T12:00:16.977Z,18.38
2023-02-11T12:03:12.331Z,19.65
2023-02-11T12:05:51.095Z,18.48
2023-02-11T12:08:26.945Z,23.65
2023-02-11T12:11:07.119Z,23.10
2023-02-11T12:13:44.075Z,20.23
2023-02-11T12:16:25.227Z,23.48
2023-02-11T12:19:24.810Z,22.10
2023-02-11T12:22:01.520Z,22.85
2023-02-11T12:24:46.175Z,22.35
2023-02-11T12:27:23.144Z,20.25
2023-02-11T12:30:03.947Z,19.73
2023-02-11T12:32:44.557Z,18.45
2023-02-11T12:35:31.137Z,20.50
2023-02-11T12:38:15.861Z,19.67
2023-02-11T12:41:00.604Z,20.98
2023-02-11T12:43:36.074Z,19.75
2023-02-11T12:46:31.822Z,20.95
2023-02-11T12:49:27.304Z,20.17
2023-02-11T12:52:07.311Z,22.00
2023-02-11T12:54:40.330Z,20.25
2023-02-11T12:57:18.752Z,21.17
2023-02-11T12:59:53.706Z,20.15
2023-02-11T13:02:28.369Z,20.98
2023-02-11T13:05:00.104Z,16.75
2023-02-11T13:07:33.438Z,19.42
2023-02-11T13:10:05.936Z,20.23
2023-02-11T13:12:36.932Z,21.17
2023-02-11T13:15:07.909Z,22.48
2023-02-11T13:17:43.531Z,22.80
2023-02-11T13:20:24.104Z,19.00
2023-02-11T13:22:59.458Z,22.08
2023-02-11T13:25:36.159Z,21.02
2023-02-11T13:28:17.828Z,20.98
2023-02-11T13:30:47.202Z,21.73
2023-02-11T13:33:31.427Z,23.15
2023-02-11T13:36:15.687Z,22.98
2023-02-11T13:38:53.985Z,25.05
2023-02-11T13:41:27.914Z,24.35
2023-02-11T13:44:02.575Z,18.85
2023-02-11T13:46:49.325Z,19.00
2023-02-11T13:49:22.587Z,21.13
2023-02-11T13:51:51.915Z,19.10
2023-02-11T13:54:32.753Z,19.95
2023-02-11T13:57:34.386Z,26.58
2023-02-11T14:00:20.307Z,21.95
2023-02-11T14:03:37.998Z,19.58
2023-02-11T14:06:14.316Z,21.38
2023-02-11T14:09:02.611Z,18.80
2023-02-11T14:11:50.202Z,21.70
2023-02-11T14:14:23.464Z,20.10
2023-02-11T14:17:34.868Z,20.48
2023-02-11T14:20:24.146Z,22.13
2023-02-11T14:22:53.344Z,18.05
2023-02-11T14:25:24.862Z,19.25
2023-02-11T14:27:57.532Z,18.35
2023-02-11T14:30:46.276Z,17.88
2023-02-11T14:33:43.816Z,17.48
2023-02-11T14:36:30.016Z,19.90
2023-02-11T14:39:07.733Z,20.15
2023-02-11T14:41:41.904Z,18.40
2023-02-11T14:44:15.230Z,20.60
2023-02-11T14:46:46.322Z,21.35
2023-02-11T14:49:24.198Z,19.02
2023-02-11T14:51:54.489Z,18.30
2023-02-11T14:54:24.972Z,15.93
2023-02-11T14:57:13.343Z,20.75
2023-02-11T14:59:52.434Z,19.45
2023-02-11T15:02:23.124Z,20.92
2023-02-11T15:04:52.337Z,18.75
2023-02-11T15:07:20.684Z,22.08
2023-02-11T15:09:51.315Z,20.83
2023-02-11T15:12:23.727Z,19.98
2023-02-11T15:14:54.838Z,20.55
2023-02-11T15:17:26.200Z,20.23
2023-02-11T15:19:59.631Z,20.10
2023-02-11T15:22:32.441Z,17.35
2023-02-11T15:25:02.198Z,20.95
2023-02-11T15:27:39.833Z,18.08
2023-02-11T15:30:24.681Z,18.17
2023-02-11T15:32:55.304Z,18.45
2023-02-11T15:35:25.090Z,16.30
2023-02-11T15:37:53.088Z,18.98
2023-02-11T15:40:24.584Z,20.10
2023-02-11T15:42:59.515Z,20.02
2023-02-11T15:45:30.845Z,19.85
2023-02-11T15:48:07.092Z,16.88
2023-02-11T15:50:38.340Z,19.75
2023-02-11T15:53:27.001Z,17.70
2023-02-11T15:56:00.970Z,19.02
2023-02-11T15:58:29.397Z,19.17
2023-02-11T16:00:57.250Z,17.55
2023-02-11T16:03:27.599Z,20.98
2023-02-11T16:05:56.755Z,21.98
2023-02-11T16:08:26.901Z,17.85
2023-02-11T16:10:56.395Z,18.23
2023-02-11T16:13:25.666Z,19.33
2023-02-11T16:15:55.760Z,21.25
2023-02-11T16:18:37.941Z,18.42
2023-02-11T16:21:14.659Z,20.55
2023-02-11T16:23:49.107Z,18.23
2023-02-11T16:26:24.966Z,20.10
2023-02-11T16:28:53.255Z,21.33
2023-02-11T16:31:21.193Z,18.58
2023-02-11T16:33:49.243Z,19.30
2023-02-11T16:36:18.517Z,19.50
2023-02-11T16:38:46.604Z,21.80
2023-02-11T16:41:14.276Z,18.23
2023-02-11T16:43:42.292Z,19.00
2023-02-11T16:46:14.757Z,18.92
2023-02-11T16:48:43.056Z,20.20
2023-02-11T16:51:12.341Z,19.73
2023-02-11T16:53:41.973Z,17.90
2023-02-11T16:56:14.984Z,18.50
2023-02-11T16:58:43.142Z,50.08
2023-02-11T17:01:13.752Z,22.50
2023-02-11T17:03:42.286Z,13.63
2023-02-11T17:06:11.039Z,17.42
2023-02-11T17:08:39.038Z,16.17
2023-02-11T17:11:08.246Z,14.40
2023-02-11T17:13:36.228Z,17.00
2023-02-11T17:16:03.970Z,17.25
2023-02-11T17:18:31.964Z,14.95
2023-02-11T17:20:59.578Z,16.67
2023-02-11T17:23:27.630Z,16.05
2023-02-11T17:25:56.287Z,16.52
2023-02-11T17:28:25.736Z,20.15
2023-02-11T17:30:53.326Z,15.75
2023-02-11T17:33:21.678Z,18.02
2023-02-11T17:35:49.428Z,19.40
2023-02-11T17:38:17.570Z,18.52
2023-02-11T17:40:45.098Z,15.25
2023-02-11T17:43:13.082Z,16.35
2023-02-11T17:45:42.951Z,16.05
2023-02-11T17:48:11.055Z,17.20
2023-02-11T17:50:38.703Z,15.80
2023-02-11T17:53:06.868Z,18.30
2023-02-11T17:55:35.276Z,20.13
2023-02-11T17:58:03.567Z,20.75
2023-02-11T18:00:31.454Z,18.98
2023-02-11T18:03:00.983Z,15.57
2023-02-11T18:05:29.018Z,17.23
2023-02-11T18:07:57.000Z,15.50
2023-02-11T18:10:24.570Z,14.45
2023-02-11T18:12:52.727Z,14.38
2023-02-11T18:15:20.231Z,15.50
2023-02-11T18:17:48.304Z,15.38
2023-02-11T18:20:17.851Z,13.70
2023-02-11T18:22:45.832Z,18.08
2023-02-11T18:25:14.690Z,16.02
2023-02-11T18:27:43.020Z,15.05
2023-02-11T18:30:15.880Z,13.70
2023-02-11T18:32:43.881Z,15.95
2023-02-11T18:35:14.842Z,16.13
2023-02-11T18:37:44.769Z,15.55
2023-02-11T18:40:13.780Z,14.82
2023-02-11T18:42:41.793Z,13.40
2023-02-11T18:45:12.631Z,14.25
2023-02-11T18:47:41.099Z,16.60
2023-02-11T18:50:10.509Z,19.40
2023-02-11T18:52:38.629Z,14.75
2023-02-11T18:55:09.192Z,20.25
2023-02-11T18:57:37.388Z,15.68
2023-02-11T19:00:05.918Z,18.65
2023-02-11T19:02:34.730Z,18.85
2023-02-11T19:05:02.502Z,19.92
2023-02-11T19:07:30.789Z,16.98
2023-02-11T19:09:58.456Z,15.93
2023-02-11T19:12:28.267Z,20.80
2023-02-11T19:14:55.968Z,20.83
2023-02-11T19:17:24.035Z,16.25
2023-02-11T19:19:51.718Z,20.92
2023-02-11T19:22:19.691Z,18.58
2023-02-11T19:24:47.470Z,18.73
2023-02-11T19:27:15.474Z,20.45
2023-02-11T19:29:44.681Z,17.83
2023-02-11T19:32:12.729Z,19.70
2023-02-11T19:34:40.543Z,22.20
2023-02-11T19:37:08.923Z,20.38
2023-02-11T19:39:36.743Z,19.98
2023-02-11T19:42:05.014Z,21.40
2023-02-11T19:44:32.699Z,22.65
2023-02-11T19:47:02.323Z,19.92
2023-02-11T19:49:30.039Z,15.68
2023-02-11T19:51:58.045Z,15.95
2023-02-11T19:54:28.703Z,18.98
2023-02-11T19:56:57.235Z,16.35
2023-02-11T19:59:25.315Z,17.02
2023-02-11T20:01:53.324Z,19.05
2023-02-11T20:04:22.332Z,19.15
2023-02-11T20:06:50.337Z,17.23
2023-02-11T20:09:18.197Z,17.80
2023-02-11T20:11:46.632Z,18.90
2023-02-11T20:14:14.705Z,21.63
2023-02-11T20:16:48.583Z,20.10
2023-02-11T20:19:19.547Z,19.05
2023-02-11T20:21:51.757Z,18.30
2023-02-11T20:24:20.488Z,19.13
2023-02-11T20:26:49.333Z,20.98
2023-02-11T20:29:18.068Z,20.05
2023-02-11T20:31:46.370Z,21.27
2023-02-11T20:34:14.390Z,20.33
2023-02-11T20:36:42.548Z,16.85
2023-02-11T20:39:12.218Z,23.13
2023-02-11T20:41:40.189Z,23.80
2023-02-11T20:44:10.368Z,22.00
2023-02-11T20:46:39.887Z,23.50
2023-02-11T20:49:07.959Z,22.13
2023-02-11T20:51:36.260Z,18.45
2023-02-11T20:54:04.220Z,18.85
2023-02-11T20:56:36.780Z,18.65
2023-02-11T20:59:05.387Z,17.50
2023-02-11T21:01:35.711Z,20.60
2023-02-11T21:04:05.389Z,17.40
2023-02-11T21:06:36.590Z,19.23
2023-02-11T21:09:06.627Z,16.52
2023-02-11T21:11:36.268Z,17.45
2023-02-11T21:14:04.088Z,20.25
2023-02-11T21:16:32.742Z,19.95
2023-02-11T21:19:01.097Z,18.92
2023-02-11T21:21:30.140Z,19.75
2023-02-11T21:23:58.381Z,20.63
2023-02-11T21:29:10.828Z,20.42
2023-02-11T21:31:39.995Z,21.40
2023-02-11T21:34:08.916Z,17.95
2023-02-11T21:36:38.295Z,19.80
2023-02-11T21:39:05.841Z,20.30
2023-02-11T21:41:35.115Z,20.08
2023-02-11T21:44:05.754Z,20.80
2023-02-11T21:46:40.589Z,19.77
2023-02-11T21:49:08.623Z,17.55
2023-02-11T21:51:37.121Z,17.05
2023-02-11T21:54:05.158Z,21.60
2023-02-11T21:56:33.255Z,20.33
2023-02-11T21:59:00.839Z,21.33
2023-02-11T22:01:31.079Z,20.33
2023-02-11T22:04:01.684Z,21.15
2023-02-11T22:06:33.364Z,21.33
2023-02-11T22:09:03.208Z,23.52
2023-02-11T22:11:31.535Z,20.67
2023-02-11T22:13:59.477Z,23.70
2023-02-11T22:16:28.728Z,18.52
2023-02-11T22:18:57.221Z,22.05
2023-02-11T22:21:27.155Z,21.98
2023-02-11T22:23:56.069Z,22.10
2023-02-11T22:26:26.470Z,19.45
2023-02-11T22:28:54.775Z,19.50
2023-02-11T22:31:25.065Z,20.88
2023-02-11T22:33:52.837Z,19.73
2023-02-11T22:36:23.265Z,19.48
2023-02-11T22:38:53.192Z,17.83
2023-02-11T22:41:22.931Z,19.70
2023-02-11T22:43:50.676Z,19.73
2023-02-11T22:46:20.060Z,20.25
2023-02-11T22:48:48.502Z,18.38
2023-02-11T22:51:18.631Z,19.77
2023-02-11T22:53:51.445Z,20.85
2023-02-11T22:56:20.001Z,20.38
2023-02-11T22:58:48.094Z,20.63
2023-02-11T23:01:16.113Z,23.27
2023-02-11T23:03:44.174Z,17.08
2023-02-11T23:06:12.386Z,19.65
2023-02-11T23:08:41.105Z,20.65
2023-02-11T23:11:13.679Z,20.92
2023-02-11T23:13:42.402Z,18.85
2023-02-11T23:16:11.942Z,22.38
2023-02-11T23:18:41.972Z,19.63
2023-02-11T23:21:12.854Z,19.17
2023-02-11T23:23:40.475Z,21.17
2023-02-11T23:26:11.626Z,18.00
2023-02-11T23:28:39.866Z,20.60
2023-02-11T23:31:16.799Z,28.00
2023-02-11T23:33:44.575Z,24.48
2023-02-11T23:36:13.283Z,23.13
2023-02-11T23:38:40.802Z,20.13
2023-02-11T23:41:10.345Z,23.58
2023-02-11T23:43:38.087Z,22.08
2023-02-11T23:46:07.284Z,22.92
2023-02-11T23:48:34.788Z,19.58
2023-02-11T23:51:02.831Z,21.45
2023-02-11T23:53:30.330Z,23.10
2023-02-11T23:55:58.483Z,18.80
2023-02-11T23:58:27.517Z,21.00
